Terminal Aerodrome Forecast
Issued by NWS

Current Version | Previous Version | Text Only | Print | Product List | Glossary On
Versions: 1 2 3 4 5 6 7 8 9 10 11 12 13 14 15
000
FTUS44 KEPZ 310500
TAFLRU
TAF
KLRU 310531Z 3106/0106 30010G18KT P6SM VCTS SCT080CB SCT120 SCT250
      TEMPO 3106/3108 VRB15G30KT -TSRA BKN080CB BKN120 OVC250
     FM311100 09010KT P6SM FEW060 BKN120 BKN250
     FM311500 13008KT P6SM FEW060 BKN120 BKN250
     FM312000 08006KT P6SM SCT060 BKN120 BKN250
     FM010500 24007KT P6SM FEW060 SCT120 BKN250=

USA.gov is the U.S. government's official web portal to all federal, state and local government web resources and services.